Time;durP1;ratioP1;P1;durP2;ratioP2;P2;SDS_P1;SDS_P2;PMS_P1;PMS_P2;Temp;Humidity;BMP_temperature;BMP_pressure;BME280_temperature;BME280_humidity;BME280_pressure;Samples;Min_cycle;Max_cycle;Signal;HPM_P1;HPM_P2
2022/08/05 00:00:30;;;;;;;2.27;1.83;;;;;;;25.46;40.08;98365.31;5093836;28;42931;-73
2022/08/05 00:02:59;;;;;;;2.90;1.80;;;;;;;25.41;40.26;98361.31;5092645;28;40807;-73
2022/08/05 00:05:27;;;;;;;3.27;2.23;;;;;;;25.38;40.84;98361.69;5093534;28;42779;-73
2022/08/05 00:07:55;;;;;;;2.83;2.07;;;;;;;25.36;40.84;98355.66;5093548;28;44021;-72
2022/08/05 00:10:23;;;;;;;2.13;1.93;;;;;;;25.35;41.13;98353.13;5091895;28;40824;-73
2022/08/05 00:12:52;;;;;;;2.33;2.13;;;;;;;25.33;41.41;98360.66;5093251;28;20710;-73
2022/08/05 00:15:20;;;;;;;3.30;2.13;;;;;;;25.30;41.28;98355.63;5090737;28;41823;-72
2022/08/05 00:17:47;;;;;;;1.80;1.70;;;;;;;25.27;41.01;98356.88;5093309;28;42801;-73
2022/08/05 00:20:16;;;;;;;2.37;2.00;;;;;;;25.24;41.31;98351.84;5092162;28;42249;-72
2022/08/05 00:22:44;;;;;;;2.40;2.17;;;;;;;25.21;41.20;98346.00;5093251;28;39858;-73
2022/08/05 00:25:12;;;;;;;1.80;1.70;;;;;;;25.18;41.47;98352.66;5091981;28;40690;-73
2022/08/05 00:27:39;;;;;;;2.10;1.70;;;;;;;25.17;41.25;98356.41;5093258;28;43757;-72
2022/08/05 00:30:08;;;;;;;1.93;1.73;;;;;;;25.15;41.59;98358.47;5091776;28;42756;-72
2022/08/05 00:32:36;;;;;;;2.53;1.80;;;;;;;25.13;42.59;98371.38;5093299;28;39873;-73
2022/08/05 00:35:04;;;;;;;2.47;2.27;;;;;;;25.12;42.72;98367.00;5091797;28;42516;-73
2022/08/05 00:37:33;;;;;;;2.17;2.07;;;;;;;25.11;42.49;98359.06;5091667;28;41642;-73
2022/08/05 00:40:01;;;;;;;2.70;2.03;;;;;;;25.07;42.17;98350.53;5091381;28;42063;-73
2022/08/05 00:42:33;;;;;;;2.20;2.00;;;;;;;25.10;42.32;98360.94;5093171;28;41825;-73
2022/08/05 00:45:00;;;;;;;2.13;2.00;;;;;;;25.10;42.25;98358.22;5092918;28;42648;-73
2022/08/05 00:47:28;;;;;;;1.87;1.60;;;;;;;25.09;42.50;98362.00;5091481;28;41961;-73
2022/08/05 00:49:56;;;;;;;2.10;1.90;;;;;;;25.05;42.25;98364.25;5091087;28;43104;-72
2022/08/05 00:52:24;;;;;;;2.20;2.00;;;;;;;25.01;42.03;98367.56;5092348;28;40022;-73
2022/08/05 00:54:53;;;;;;;1.80;1.70;;;;;;;24.95;42.34;98363.78;5091370;28;41560;-73
2022/08/05 00:57:21;;;;;;;1.67;1.57;;;;;;;24.93;41.97;98362.31;5074711;28;42305;-72
2022/08/05 00:59:49;;;;;;;1.63;1.53;;;;;;;24.92;42.15;98363.31;5091264;28;42127;-73
2022/08/05 01:02:17;;;;;;;1.93;1.60;;;;;;;24.88;41.95;98362.03;5092984;28;40911;-72
2022/08/05 01:04:45;;;;;;;2.20;2.00;;;;;;;24.95;41.80;98373.78;5092216;28;42645;-73
2022/08/05 01:07:12;;;;;;;1.93;1.83;;;;;;;24.96;42.18;98372.75;5091320;28;42790;-73
2022/08/05 01:09:41;;;;;;;2.50;2.30;;;;;;;25.00;42.02;98371.31;5073461;28;42191;-73
2022/08/05 01:12:14;;;;;;;2.50;2.30;;;;;;;24.99;42.29;98365.03;5091271;28;40470;-73
2022/08/05 01:14:48;;;;;;;2.40;2.20;;;;;;;25.05;43.07;98366.13;5091006;28;43774;-73
2022/08/05 01:17:24;;;;;;;2.83;2.17;;;;;;;25.08;43.43;98352.19;5089468;28;42347;-73
2022/08/05 01:20:12;;;;;;;2.60;2.20;;;;;;;25.12;42.65;98352.59;5091529;28;43227;-73
2022/08/05 01:22:54;;;;;;;2.87;2.07;;;;;;;25.17;42.27;98355.56;5090318;28;39206;-72
2022/08/05 01:26:12;;;;;;;2.10;1.90;;;;;;;25.19;42.12;98359.75;5090947;28;40974;-73
2022/08/05 01:28:46;;;;;;;2.53;2.03;;;;;;;25.19;41.82;98365.19;5013085;28;44405;-73
2022/08/05 01:31:22;;;;;;;1.70;1.60;;;;;;;24.86;42.10;98323.47;5026620;28;42190;-73
2022/08/05 01:33:55;;;;;;;3.13;2.50;;;;;;;25.09;43.51;98427.03;5063920;28;39469;-73
2022/08/05 01:36:28;;;;;;;2.83;2.50;;;;;;;24.96;44.07;98413.41;5089211;28;41553;-73
2022/08/05 01:38:56;;;;;;;2.30;2.10;;;;;;;24.84;44.25;98404.94;5090170;28;42810;-72
2022/08/05 01:41:25;;;;;;;2.60;2.40;;;;;;;24.84;44.16;98415.78;5090884;28;42702;-73
2022/08/05 01:43:55;;;;;;;2.70;2.40;;;;;;;24.80;43.82;98425.31;5073761;28;39878;-73
2022/08/05 01:46:24;;;;;;;2.50;2.30;;;;;;;24.79;43.61;98428.22;5090761;28;41487;-73
2022/08/05 01:48:54;;;;;;;1.90;1.80;;;;;;;24.76;43.65;98425.91;5090593;28;42641;-73
2022/08/05 01:51:23;;;;;;;2.13;1.93;;;;;;;24.74;43.28;98441.50;5092246;28;41991;-73
2022/08/05 01:53:53;;;;;;;2.03;1.93;;;;;;;24.72;43.26;98449.03;5090490;28;40189;-72
2022/08/05 01:56:24;;;;;;;2.07;1.87;;;;;;;24.71;43.35;98448.19;5073650;28;41458;-73
2022/08/05 01:58:56;;;;;;;2.33;2.13;;;;;;;24.72;43.48;98449.03;5091166;28;42537;-72
2022/08/05 02:01:27;;;;;;;2.20;2.00;;;;;;;24.74;43.36;98457.75;5087587;28;42349;-73
2022/08/05 02:03:56;;;;;;;2.10;1.90;;;;;;;24.73;43.34;98461.53;5091832;28;41133;-73
2022/08/05 02:06:24;;;;;;;3.17;2.00;;;;;;;24.70;43.45;98460.88;5091734;28;42144;-73
2022/08/05 02:08:53;;;;;;;1.93;1.77;;;;;;;24.67;43.35;98458.56;5091310;28;42918;-73
2022/08/05 02:11:22;;;;;;;2.43;2.23;;;;;;;24.58;44.04;98442.66;5091832;28;42926;-72
2022/08/05 02:13:56;;;;;;;2.40;2.20;;;;;;;24.70;44.47;98463.59;5089918;28;39160;-73
2022/08/05 02:16:28;;;;;;;2.10;1.90;;;;;;;24.74;45.34;98449.63;5087878;28;42663;-73
2022/08/05 02:19:00;;;;;;;2.23;2.03;;;;;;;24.78;46.08;98443.63;5090174;28;43179;-73
2022/08/05 02:21:34;;;;;;;2.30;2.10;;;;;;;24.90;46.92;98452.06;5087068;28;42948;-73
2022/08/05 02:24:09;;;;;;;2.87;2.20;;;;;;;24.98;47.20;98449.22;5073301;28;39776;-73
2022/08/05 02:26:42;;;;;;;2.10;1.90;;;;;;;25.09;48.27;98456.00;5087432;28;41736;-73
2022/08/05 02:29:16;;;;;;;3.97;2.60;;;;;;;25.15;48.60;98450.59;5089578;28;43785;-73
2022/08/05 02:31:46;;;;;;;3.17;2.17;;;;;;;25.30;48.33;98459.47;5090527;28;41179;-73
2022/08/05 02:34:16;;;;;;;3.73;1.93;;;;;;;25.42;48.00;98457.88;5089992;28;40291;-73
2022/08/05 02:36:50;;;;;;;2.60;2.40;;;;;;;25.52;48.26;98453.94;5091271;28;44730;-73
2022/08/05 02:39:20;;;;;;;2.50;1.93;;;;;;;25.58;47.98;98455.88;5089749;28;43785;-73
2022/08/05 02:41:48;;;;;;;3.10;2.47;;;;;;;25.60;48.29;98448.34;5091336;28;42382;-73
2022/08/05 02:44:19;;;;;;;2.73;2.07;;;;;;;25.57;48.54;98443.34;5090951;28;39978;-73
2022/08/05 02:46:48;;;;;;;2.70;2.20;;;;;;;25.59;48.76;98444.81;5086914;28;41821;-73
2022/08/05 02:49:17;;;;;;;3.43;2.23;;;;;;;25.59;49.00;98457.56;5090993;28;42950;-73
2022/08/05 02:51:46;;;;;;;2.83;2.30;;;;;;;25.60;49.07;98453.78;5091063;28;42104;-73
2022/08/05 02:54:15;;;;;;;3.13;2.40;;;;;;;25.60;49.10;98453.78;5089692;28;40859;-73
2022/08/05 02:56:44;;;;;;;2.50;2.30;;;;;;;25.58;49.36;98451.28;5073064;28;40865;-73
2022/08/05 02:59:12;;;;;;;3.93;2.20;;;;;;;25.61;49.70;98448.19;5089745;28;42764;-73
2022/08/05 03:01:42;;;;;;;2.87;2.13;;;;;;;25.57;49.73;98435.22;5091126;28;42414;-72
2022/08/05 03:04:14;;;;;;;2.73;2.17;;;;;;;25.64;49.86;98445.06;5072536;28;41192;-73
2022/08/05 03:06:42;;;;;;;4.20;2.30;;;;;;;25.61;50.39;98433.78;5087941;28;41708;-73
2022/08/05 03:09:13;;;;;;;3.80;2.40;;;;;;;25.69;50.26;98433.63;5090195;28;42853;-73
2022/08/05 03:11:42;;;;;;;2.73;2.23;;;;;;;25.72;50.49;98425.06;5087374;28;42207;-73
2022/08/05 03:14:10;;;;;;;3.47;2.30;;;;;;;25.74;50.21;98421.13;5093847;28;42526;-73
2022/08/05 03:16:38;;;;;;;3.97;2.70;;;;;;;25.78;50.10;98418.84;5075650;28;40454;-74
2022/08/05 03:19:08;;;;;;;4.47;2.27;;;;;;;25.81;50.37;98418.44;5092868;28;41965;-74
2022/08/05 03:21:35;;;;;;;4.07;2.67;;;;;;;25.84;50.71;98400.94;5093058;28;42653;-73
2022/08/05 03:24:03;;;;;;;2.27;1.93;;;;;;;25.82;50.67;98409.28;5094292;28;40057;-73
2022/08/05 03:26:31;;;;;;;4.67;2.77;;;;;;;25.90;50.30;98417.22;5093025;28;41783;-73
2022/08/05 03:28:59;;;;;;;4.13;2.40;;;;;;;25.92;50.30;98415.13;5093978;28;42855;-73
2022/08/05 03:31:29;;;;;;;2.73;2.50;;;;;;;25.96;50.44;98410.16;5094305;28;42327;-74
2022/08/05 03:33:58;;;;;;;6.20;2.23;;;;;;;25.97;50.56;98406.38;5093860;28;39822;-74
2022/08/05 03:36:27;;;;;;;4.20;2.83;;;;;;;26.01;50.34;98405.75;5092574;28;40561;-73
2022/08/05 03:38:55;;;;;;;2.50;2.13;;;;;;;25.97;51.00;98409.91;5093569;28;43978;-73
2022/08/05 03:41:23;;;;;;;3.23;2.30;;;;;;;26.04;50.32;98420.81;5092975;28;43046;-74
2022/08/05 03:43:51;;;;;;;3.20;2.03;;;;;;;26.04;50.05;98423.53;5093918;28;40082;-74
2022/08/05 03:46:18;;;;;;;4.77;2.10;;;;;;;26.06;50.59;98427.72;5094078;28;42699;-74
2022/08/05 03:48:46;;;;;;;2.57;2.37;;;;;;;26.12;50.54;98448.59;5092526;28;41996;-73
2022/08/05 03:51:20;;;;;;;2.90;2.50;;;;;;;26.13;50.39;98441.28;5075556;28;43369;-74
2022/08/05 03:53:55;;;;;;;2.57;2.37;;;;;;;26.19;49.76;98458.63;5092430;28;39374;-73
2022/08/05 03:56:28;;;;;;;2.83;2.20;;;;;;;26.19;50.08;98459.47;5089677;28;42643;-74
2022/08/05 03:59:01;;;;;;;2.43;2.23;;;;;;;26.21;50.09;98464.69;5091302;28;42769;-73
2022/08/05 04:01:31;;;;;;;3.57;2.37;;;;;;;26.22;50.04;98458.22;5091566;28;42071;-74
2022/08/05 04:04:00;;;;;;;2.97;1.97;;;;;;;26.26;50.08;98467.63;5092248;28;40237;-73
2022/08/05 04:06:29;;;;;;;4.13;2.20;;;;;;;26.26;49.80;98448.63;5093704;28;42789;-73
2022/08/05 04:08:58;;;;;;;2.30;2.10;;;;;;;26.29;49.64;98459.09;5074473;28;41452;-74
2022/08/05 04:11:26;;;;;;;2.93;2.30;;;;;;;26.31;49.57;98481.47;5093640;28;43044;-73
2022/08/05 04:13:55;;;;;;;2.30;2.10;;;;;;;26.34;49.67;98479.16;5093317;28;40085;-74
2022/08/05 04:16:23;;;;;;;2.87;1.80;;;;;;;26.37;49.03;98491.47;5092393;28;41792;-74
2022/08/05 04:18:51;;;;;;;2.47;1.90;;;;;;;26.37;49.18;98495.03;5093389;28;43503;-73
2022/08/05 04:21:19;;;;;;;2.20;2.00;;;;;;;26.37;49.16;98505.91;5092232;28;42430;-73
2022/08/05 04:23:47;;;;;;;2.03;1.90;;;;;;;26.35;48.85;98518.00;5092816;28;40358;-73
2022/08/05 04:26:16;;;;;;;3.00;1.80;;;;;;;26.35;48.99;98518.00;5092019;28;42608;-73
2022/08/05 04:28:44;;;;;;;2.57;2.20;;;;;;;26.33;48.67;98515.53;5092472;28;44058;-74
2022/08/05 04:31:12;;;;;;;2.33;1.70;;;;;;;26.34;48.93;98516.31;5091378;28;42207;-73
2022/08/05 04:33:39;;;;;;;2.30;1.90;;;;;;;26.36;49.09;98522.41;5091534;28;41418;-73
2022/08/05 04:36:09;;;;;;;2.53;1.77;;;;;;;26.42;48.55;98524.31;5093076;28;41772;-73
2022/08/05 04:38:37;;;;;;;2.70;2.30;;;;;;;26.50;49.25;98551.25;5091571;28;42795;-73
2022/08/05 04:41:05;;;;;;;5.53;2.40;;;;;;;26.58;49.31;98578.22;5091852;28;43169;-73
2022/08/05 04:43:34;;;;;;;3.07;1.97;;;;;;;26.61;49.44;98569.69;5074635;28;40267;-74
2022/08/05 04:46:03;;;;;;;2.77;2.40;;;;;;;26.68;49.57;98600.44;5092756;28;41626;-73
2022/08/05 04:48:31;;;;;;;3.90;2.33;;;;;;;26.74;49.46;98594.16;5091691;28;41638;-73
2022/08/05 04:50:59;;;;;;;2.90;2.60;;;;;;;26.86;49.48;98605.25;5074247;28;41727;-73
2022/08/05 04:53:27;;;;;;;3.87;2.63;;;;;;;27.00;49.00;98589.84;5074454;28;41196;-73
2022/08/05 04:55:55;;;;;;;2.60;2.20;;;;;;;27.16;48.95;98597.63;5092773;28;42784;-74
2022/08/05 04:58:24;;;;;;;1.93;1.70;;;;;;;27.23;48.58;98587.56;5092755;28;42791;-73
2022/08/05 05:00:53;;;;;;;3.00;2.30;;;;;;;27.53;47.86;98618.75;5091505;28;42275;-73
2022/08/05 05:03:21;;;;;;;2.50;2.13;;;;;;;27.72;47.87;98633.41;5091494;28;40039;-73
2022/08/05 05:05:48;;;;;;;3.50;2.27;;;;;;;27.83;47.71;98626.47;5092585;28;42506;-74
2022/08/05 05:08:16;;;;;;;4.77;2.40;;;;;;;27.92;47.17;98630.69;5092558;28;43805;-73
2022/08/05 05:10:46;;;;;;;3.17;2.87;;;;;;;27.92;47.65;98647.00;5073999;28;41513;-74
2022/08/05 05:13:16;;;;;;;2.67;2.20;;;;;;;27.93;47.54;98637.78;5088883;28;39873;-73
2022/08/05 05:15:46;;;;;;;3.57;2.30;;;;;;;27.97;47.36;98655.34;5092227;28;41479;-74
2022/08/05 05:18:16;;;;;;;2.80;2.27;;;;;;;28.00;47.29;98660.38;5092231;28;42676;-74
2022/08/05 05:20:44;;;;;;;2.47;2.27;;;;;;;28.08;46.89;98664.75;5091228;28;41903;-73
2022/08/05 05:23:12;;;;;;;2.13;2.00;;;;;;;28.18;47.04;98668.78;5074274;28;38787;-74
2022/08/05 05:25:41;;;;;;;2.93;2.60;;;;;;;28.26;46.40;98659.53;5092392;28;41661;-73
2022/08/05 05:28:09;;;;;;;2.40;2.20;;;;;;;28.38;45.99;98673.31;5090873;28;42725;-74
2022/08/05 05:30:36;;;;;;;2.77;1.90;;;;;;;28.48;45.42;98674.53;5074095;28;43583;-74
2022/08/05 05:33:06;;;;;;;5.47;2.20;;;;;;;28.54;45.66;98675.56;5073991;28;39163;-73
2022/08/05 05:35:36;;;;;;;2.47;2.03;;;;;;;28.65;45.12;98683.06;5072713;28;41872;-74
2022/08/05 05:38:05;;;;;;;2.70;2.10;;;;;;;28.75;44.50;98688.06;5074141;28;42944;-73
2022/08/05 05:40:34;;;;;;;3.10;2.33;;;;;;;28.91;43.85;98690.34;5090499;28;41420;-74
2022/08/05 05:43:01;;;;;;;2.93;2.07;;;;;;;29.14;43.55;98695.25;5089275;28;41257;-73
2022/08/05 05:45:29;;;;;;;2.10;1.90;;;;;;;29.38;43.42;98705.41;5090167;28;41099;-73
2022/08/05 05:47:58;;;;;;;2.47;1.80;;;;;;;29.62;42.87;98701.88;5092019;28;42848;-74
2022/08/05 05:50:26;;;;;;;2.70;2.03;;;;;;;29.84;42.15;98713.22;5090424;28;41138;-73
2022/08/05 05:52:55;;;;;;;2.13;1.93;;;;;;;30.04;41.35;98713.09;5073738;28;38963;-74
2022/08/05 05:55:22;;;;;;;2.87;2.00;;;;;;;30.22;40.61;98710.41;5090350;28;40630;-72
2022/08/05 05:57:50;;;;;;;2.13;1.57;;;;;;;30.18;40.40;98719.25;5090600;28;41266;-74
2022/08/05 06:00:21;;;;;;;1.87;1.77;;;;;;;30.07;40.26;98739.94;5091694;28;42172;-74
2022/08/05 06:02:49;;;;;;;1.70;1.60;;;;;;;29.90;40.42;98755.22;5090613;28;38925;-73
2022/08/05 06:05:17;;;;;;;2.37;1.57;;;;;;;29.86;40.51;98745.78;5088404;28;41916;-73
2022/08/05 06:07:46;;;;;;;2.20;1.70;;;;;;;29.84;40.54;98736.97;5091780;28;42656;-74
2022/08/05 06:10:15;;;;;;;2.27;1.77;;;;;;;29.90;40.62;98747.00;5072824;28;41480;-73
2022/08/05 06:12:42;;;;;;;2.60;1.80;;;;;;;29.89;40.55;98743.44;5082611;28;40049;-73
2022/08/05 06:15:11;;;;;;;2.20;1.90;;;;;;;29.97;40.10;98751.38;5089458;28;42746;-74
2022/08/05 06:17:39;;;;;;;1.40;1.30;;;;;;;29.97;40.45;98767.78;5090207;28;42026;-74
2022/08/05 06:20:08;;;;;;;2.40;1.80;;;;;;;30.01;40.58;98768.16;5089897;28;41211;-73
2022/08/05 06:22:36;;;;;;;1.80;1.70;;;;;;;30.11;40.40;98773.97;5124540;27;41040;-74
2022/08/05 06:25:06;;;;;;;1.50;1.40;;;;;;;30.25;40.18;98791.91;5089970;28;40693;-73
2022/08/05 06:27:36;;;;;;;1.93;1.80;;;;;;;30.24;40.23;98784.78;5107247;28;43989;-75
2022/08/05 06:30:04;;;;;;;1.93;1.83;;;;;;;30.13;40.52;98792.88;5089597;28;42424;-74
2022/08/05 06:32:32;;;;;;;1.67;1.57;;;;;;;30.11;40.53;98798.53;5090002;28;39700;-74
2022/08/05 06:35:00;;;;;;;2.60;1.50;;;;;;;30.06;40.48;98795.63;5088601;28;41471;-74
2022/08/05 06:37:28;;;;;;;1.50;1.40;;;;;;;30.13;40.56;98782.78;5085970;28;42987;-74
2022/08/05 06:39:56;;;;;;;3.30;2.13;;;;;;;30.41;40.16;98790.50;5087870;28;42324;-74
2022/08/05 06:42:24;;;;;;;2.03;1.60;;;;;;;30.74;39.40;98789.38;5089713;28;39797;-73
2022/08/05 06:44:53;;;;;;;2.20;2.00;;;;;;;31.00;39.17;98784.44;5088855;28;40956;-75
2022/08/05 06:47:20;;;;;;;2.50;1.67;;;;;;;31.27;39.07;98789.59;5092724;28;41907;-74
2022/08/05 06:49:48;;;;;;;1.90;1.60;;;;;;;31.39;38.68;98793.22;5092489;28;41180;-74
2022/08/05 06:52:16;;;;;;;1.97;1.77;;;;;;;31.34;38.78;98790.34;5070534;28;39215;-74
2022/08/05 06:54:43;;;;;;;1.93;1.73;;;;;;;31.51;38.16;98810.53;5092341;28;41680;-74
2022/08/05 06:57:14;;;;;;;2.90;1.70;;;;;;;31.62;38.07;98808.91;5093230;28;42885;-73
2022/08/05 06:59:41;;;;;;;1.83;1.73;;;;;;;31.67;37.78;98807.16;5093146;28;43003;-74
2022/08/05 07:02:11;;;;;;;2.20;2.00;;;;;;;31.75;37.62;98808.75;5094391;28;40032;-75
2022/08/05 07:04:41;;;;;;;1.60;1.50;;;;;;;31.76;37.57;98808.53;5093255;28;40523;-75
2022/08/05 07:07:09;;;;;;;2.13;1.90;;;;;;;31.77;37.36;98812.09;5092489;28;43745;-75
2022/08/05 07:09:36;;;;;;;1.77;1.67;;;;;;;31.72;37.94;98796.34;5092195;28;42733;-73
2022/08/05 07:12:05;;;;;;;1.87;1.73;;;;;;;31.86;37.47;98798.91;5089915;28;40170;-73
2022/08/05 07:17:19;;;;;;;2.10;1.90;;;;;;;32.15;37.38;98794.44;5093486;28;42742;-74
2022/08/05 07:19:46;;;;;;;1.97;1.87;;;;;;;32.24;36.71;98796.63;5093919;28;42944;-73
2022/08/05 07:22:14;;;;;;;1.70;1.60;;;;;;;32.32;36.53;98804.47;5127469;27;40954;-77
2022/08/05 07:24:42;;;;;;;1.93;1.70;;;;;;;32.32;36.25;98806.38;5076256;28;42035;-75
2022/08/05 07:27:10;;;;;;;1.83;1.50;;;;;;;32.23;37.03;98803.16;5093382;28;41844;-76
2022/08/05 07:29:38;;;;;;;3.77;2.00;;;;;;;32.30;36.69;98801.13;5094611;28;42193;-73
2022/08/05 07:32:07;;;;;;;1.70;1.60;;;;;;;32.44;36.60;98807.22;5095047;28;41170;-77
2022/08/05 07:34:36;;;;;;;2.53;2.33;;;;;;;32.74;36.13;98804.41;5076329;28;41959;-76
2022/08/05 07:37:04;;;;;;;1.87;1.77;;;;;;;33.31;34.68;98829.25;5094492;28;42938;-77
2022/08/05 07:39:33;;;;;;;1.80;1.70;;;;;;;33.79;34.00;98837.09;5092765;28;42567;-74
2022/08/05 07:42:01;;;;;;;2.27;1.90;;;;;;;34.07;33.68;98836.22;5103310;28;40410;-77
2022/08/05 07:44:28;;;;;;;1.63;1.50;;;;;;;34.31;33.71;98846.03;5093493;28;41800;-77
2022/08/05 07:46:56;;;;;;;1.80;1.70;;;;;;;34.52;32.71;98848.00;5100965;28;41901;-76
2022/08/05 07:49:23;;;;;;;2.40;2.00;;;;;;;34.76;32.67;98836.84;5092315;28;42129;-76
2022/08/05 07:51:52;;;;;;;1.77;1.67;;;;;;;35.10;32.53;98841.22;5089555;28;40741;-77
2022/08/05 07:54:22;;;;;;;2.13;1.80;;;;;;;35.36;32.80;98847.09;5073327;28;40743;-76
2022/08/05 07:56:50;;;;;;;2.40;2.00;;;;;;;35.69;32.09;98852.44;5089463;28;42812;-73
2022/08/05 07:59:17;;;;;;;3.70;2.20;;;;;;;35.71;31.71;98853.00;5075031;28;41063;-78
2022/08/05 08:01:45;;;;;;;2.00;1.80;;;;;;;35.53;31.72;98858.84;5094239;28;41000;-76
2022/08/05 08:04:13;;;;;;;2.40;1.73;;;;;;;35.34;32.30;98860.28;5092540;28;41893;-78
2022/08/05 08:06:41;;;;;;;1.90;1.80;;;;;;;35.16;32.23;98853.09;5075430;28;43304;-74
2022/08/05 08:09:10;;;;;;;2.33;2.00;;;;;;;34.97;32.51;98838.00;5093162;28;42162;-76
2022/08/05 08:11:38;;;;;;;1.87;1.77;;;;;;;35.01;32.80;98837.22;5094142;28;40874;-79
2022/08/05 08:14:05;;;;;;;3.07;1.90;;;;;;;35.26;32.26;98840.34;5093577;28;42207;-77
2022/08/05 08:16:33;;;;;;;4.43;2.20;;;;;;;35.72;31.56;98840.88;5075197;28;42134;-76
2022/08/05 08:19:00;;;;;;;4.47;2.37;;;;;;;36.54;30.26;98859.06;5092887;28;42279;-76
2022/08/05 08:21:29;;;;;;;1.57;1.47;;;;;;;36.31;30.17;98865.78;5092860;28;38804;-79
2022/08/05 08:23:57;;;;;;;2.73;2.50;;;;;;;36.51;30.08;98865.94;5093847;28;41827;-74
2022/08/05 08:26:26;;;;;;;2.23;1.83;;;;;;;36.81;29.38;98864.56;5092773;28;41197;-73
2022/08/05 08:28:54;;;;;;;1.93;1.83;;;;;;;36.92;29.06;98855.22;5092265;28;42343;-77
2022/08/05 08:31:22;;;;;;;1.70;1.60;;;;;;;37.40;28.44;98881.75;5092888;28;40320;-77
2022/08/05 08:33:50;;;;;;;1.90;1.80;;;;;;;37.32;28.57;98876.75;5075042;28;40721;-74
2022/08/05 08:36:18;;;;;;;2.60;2.23;;;;;;;36.97;28.66;98880.09;5093497;28;42717;-78
2022/08/05 08:38:46;;;;;;;1.87;1.70;;;;;;;36.72;28.88;98885.47;5092421;28;42225;-74
2022/08/05 08:41:15;;;;;;;1.87;1.60;;;;;;;37.06;28.54;98889.56;5092448;28;39922;-79
2022/08/05 08:43:46;;;;;;;3.33;2.03;;;;;;;36.78;28.74;98878.88;5092342;28;42759;-78
2022/08/05 08:46:15;;;;;;;2.43;1.90;;;;;;;36.28;28.98;98869.06;5075385;28;41704;-76
2022/08/05 08:48:46;;;;;;;1.87;1.77;;;;;;;36.24;28.70;98870.66;5093647;28;42348;-78
2022/08/05 08:51:17;;;;;;;2.20;2.00;;;;;;;37.26;27.73;98883.34;5090639;28;40384;-77
2022/08/05 08:53:45;;;;;;;2.20;1.90;;;;;;;39.16;25.87;98890.63;5092321;28;40451;-76
2022/08/05 08:56:13;;;;;;;2.22;2.08;;;;;;;40.21;24.42;98896.00;5093508;28;42563;-77
2022/08/05 08:58:41;;;;;;;1.67;1.58;;;;;;;40.85;23.83;98887.47;5092007;28;42259;-77
2022/08/05 09:01:11;;;;;;;2.05;1.80;;;;;;;40.58;24.38;98889.06;5092045;28;41819;-79
2022/08/05 09:03:41;;;;;;;2.58;2.05;;;;;;;40.51;23.97;98879.16;5093061;28;44153;-78
2022/08/05 09:06:08;;;;;;;2.17;1.92;;;;;;;40.41;24.07;98890.34;5093246;28;42727;-77
2022/08/05 09:08:36;;;;;;;2.13;1.95;;;;;;;40.45;24.13;98896.13;5091769;28;42946;-76
2022/08/05 09:11:04;;;;;;;2.10;1.90;;;;;;;40.83;23.35;98902.75;5089139;28;39980;-79
2022/08/05 09:13:34;;;;;;;2.08;1.92;;;;;;;40.74;23.68;98885.91;5074823;28;40916;-77
2022/08/05 09:16:02;;;;;;;2.85;1.70;;;;;;;40.82;23.90;98890.81;5091656;28;42853;-76
2022/08/05 09:18:31;;;;;;;2.83;1.85;;;;;;;40.81;23.66;98886.38;5092851;28;42224;-77
2022/08/05 09:20:59;;;;;;;2.03;1.90;;;;;;;40.71;23.28;98867.03;5091776;28;39995;-77
2022/08/05 09:23:27;;;;;;;2.47;1.75;;;;;;;41.01;23.12;98879.81;5091702;28;42660;-80
2022/08/05 09:26:07;;;;;;;2.53;1.90;;;;;;;40.98;22.79;98890.69;5091655;28;43964;-78
2022/08/05 09:28:36;;;;;;;1.77;1.67;;;;;;;40.76;23.24;98880.91;5090369;28;42562;-82
2022/08/05 09:31:06;;;;;;;3.92;2.10;;;;;;;40.82;23.30;98878.88;5092742;28;39967;-80
2022/08/05 09:33:47;;;;;;;2.05;1.88;;;;;;;41.18;22.77;98868.25;5074358;28;42644;-77
2022/08/05 09:36:16;;;;;;;2.60;1.92;;;;;;;41.41;22.28;98870.22;5091419;28;43791;-77
2022/08/05 09:38:56;;;;;;;2.25;1.98;;;;;;;41.08;22.74;98854.44;5092605;28;43302;-79
2022/08/05 09:41:24;;;;;;;1.80;1.70;;;;;;;41.12;22.74;98850.78;5091444;28;40231;-77
2022/08/05 09:43:52;;;;;;;2.00;1.90;;;;;;;41.14;22.73;98865.25;5091435;28;42769;-80
2022/08/05 09:46:28;;;;;;;1.77;1.67;;;;;;;40.85;23.19;98873.56;5091154;28;42579;-74
2022/08/05 09:49:03;;;;;;;2.05;1.85;;;;;;;40.77;23.42;98865.88;5089197;28;42452;-77
2022/08/05 09:51:33;;;;;;;2.00;1.90;;;;;;;40.56;23.48;98853.25;5088248;28;40823;-78
2022/08/05 09:54:03;;;;;;;2.50;2.03;;;;;;;40.99;22.86;98864.56;5090880;28;41014;-76
2022/08/05 09:56:33;;;;;;;3.17;2.20;;;;;;;41.78;22.17;98852.78;5092680;28;42710;-77
2022/08/05 09:59:03;;;;;;;1.90;1.80;;;;;;;41.70;21.63;98855.41;5091911;28;43231;-76
2022/08/05 10:01:33;;;;;;;2.33;2.15;;;;;;;41.53;22.03;98851.16;5073991;28;40404;-78
2022/08/05 10:04:05;;;;;;;2.25;2.15;;;;;;;41.45;22.50;98832.34;5091112;28;40766;-77
2022/08/05 10:06:34;;;;;;;1.83;1.58;;;;;;;41.02;22.38;98820.34;5089145;28;42809;-78
2022/08/05 10:09:13;;;;;;;2.03;1.92;;;;;;;40.14;23.02;98801.97;5073135;28;42569;-77
2022/08/05 10:11:41;;;;;;;1.70;1.60;;;;;;;39.25;23.85;98783.63;5073419;28;38841;-75
2022/08/05 10:14:21;;;;;;;1.88;1.77;;;;;;;38.53;24.68;98782.19;5072796;28;43486;-76
2022/08/05 10:16:50;;;;;;;1.77;1.67;;;;;;;38.14;25.33;98772.78;5091022;28;41723;-76
2022/08/05 10:19:20;;;;;;;1.70;1.60;;;;;;;37.98;25.61;98769.13;5091831;28;42365;-75
2022/08/05 10:21:48;;;;;;;2.00;1.90;;;;;;;37.92;25.69;98762.78;5073236;28;38997;-79
2022/08/05 10:24:17;;;;;;;2.03;1.93;;;;;;;37.93;25.59;98755.34;5090425;28;40967;-79
2022/08/05 10:26:48;;;;;;;1.70;1.60;;;;;;;37.89;25.47;98732.91;5090673;28;42858;-77
2022/08/05 10:29:16;;;;;;;3.83;1.63;;;;;;;38.10;25.69;98761.44;5091524;28;43045;-77
2022/08/05 10:31:44;;;;;;;2.23;2.13;;;;;;;38.06;25.52;98761.13;5073725;28;39872;-78
2022/08/05 10:34:11;;;;;;;1.80;1.70;;;;;;;38.29;25.41;98781.91;5090381;28;42064;-80
2022/08/05 10:36:41;;;;;;;1.73;1.63;;;;;;;38.35;25.40;98789.06;5073568;28;42654;-78
2022/08/05 10:39:14;;;;;;;1.48;1.38;;;;;;;38.69;25.27;98808.75;5089898;28;42031;-77
2022/08/05 10:41:52;;;;;;;1.90;1.75;;;;;;;39.54;24.71;98807.91;5087241;28;41667;-79
2022/08/05 10:44:22;;;;;;;1.88;1.58;;;;;;;40.99;22.91;98822.88;5088682;28;42453;-76
2022/08/05 10:46:51;;;;;;;3.03;1.70;;;;;;;42.45;21.36;98822.81;5073222;28;45294;-78
2022/08/05 10:49:20;;;;;;;1.85;1.75;;;;;;;43.10;20.66;98827.50;5072983;28;43322;-78
2022/08/05 10:51:56;;;;;;;2.00;1.80;;;;;;;42.86;20.55;98838.84;5072938;28;39855;-79
2022/08/05 10:54:25;;;;;;;1.83;1.73;;;;;;;42.45;20.45;98827.56;5088808;28;41515;-78
2022/08/05 10:56:55;;;;;;;2.05;1.85;;;;;;;42.59;20.00;98837.59;5090016;28;42819;-79
2022/08/05 10:59:27;;;;;;;1.77;1.67;;;;;;;42.93;19.42;98834.50;5091227;28;42320;-80
2022/08/05 11:02:07;;;;;;;2.00;1.58;;;;;;;43.44;19.26;98847.44;5090277;28;40723;-75
2022/08/05 11:04:43;;;;;;;1.75;1.65;;;;;;;43.70;18.88;98840.19;5072901;28;42128;-75
2022/08/05 11:07:15;;;;;;;1.80;1.70;;;;;;;43.67;18.95;98849.19;5073192;28;41878;-79
2022/08/05 11:09:47;;;;;;;1.88;1.50;;;;;;;43.32;18.79;98822.03;5088492;28;43182;-77
2022/08/05 11:12:46;;;;;;;1.70;1.60;;;;;;;43.60;19.14;98854.38;5091164;28;41272;-74
2022/08/05 11:15:20;;;;;;;2.22;1.80;;;;;;;44.24;18.63;98849.56;5090828;28;42552;-76
2022/08/05 11:17:50;;;;;;;1.60;1.50;;;;;;;44.83;17.96;98852.28;5072808;28;41186;-75
2022/08/05 11:20:37;;;;;;;1.50;1.40;;;;;;;45.60;17.50;98861.03;5072659;28;41241;-75
2022/08/05 11:23:32;;;;;;;2.03;1.48;;;;;;;46.22;17.34;98849.59;5072846;28;38673;-75
2022/08/05 11:26:05;;;;;;;1.77;1.67;;;;;;;46.57;17.37;98860.78;5091119;28;42415;-78
2022/08/05 11:28:48;;;;;;;1.50;1.40;;;;;;;46.42;17.01;98853.69;5072632;28;42938;-75
2022/08/05 11:31:32;;;;;;;1.67;1.42;;;;;;;45.86;17.32;98858.28;5086608;28;43284;-75
2022/08/05 11:34:03;;;;;;;2.00;1.90;;;;;;;45.42;17.92;98856.50;5075396;28;40927;-75
2022/08/05 11:36:50;;;;;;;1.92;1.75;;;;;;;45.05;18.19;98847.47;5092993;28;40794;-78
2022/08/05 11:39:59;;;;;;;2.25;2.10;;;;;;;44.77;19.07;98847.97;5091460;28;43699;-74
2022/08/05 11:42:28;;;;;;;1.80;1.70;;;;;;;44.62;18.86;98846.41;5090132;28;42323;-75
2022/08/05 11:45:02;;;;;;;1.90;1.60;;;;;;;44.56;18.63;98858.84;5092655;28;40093;-75
2022/08/05 11:47:32;;;;;;;2.30;2.00;;;;;;;44.37;18.38;98871.06;5090046;28;41480;-77
2022/08/05 11:50:00;;;;;;;1.80;1.70;;;;;;;44.24;18.53;98874.69;5092687;28;43827;-77